PECK1: Ninnescah River, Peck, KS

Data processed at Thu Jan 04 2018 23:04


All information presented herein is the property of the government of the United States of America and may be revised or deleted at any time without prior notice.
Dissemination of this information without the expressed written consent of the Public Affairs Office, Tulsa District U.S. Army Corps of Engineers is strictly prohibited.
These data are gathered electronically and, as presented, have not undergone any form of quality control. These data are not guaranteed to be valid or correct.
Go to home page.
Go to station list.

Upstream stations:

Downstream station:
Previous Day
Next Day
Current Day
    
SHEF ID:       PECK1     NINNESCAH R NR PECK, KS
STATION TYPE:  

               PRECIP     STAGE  RIV-FLOW  BAT-LOAD
                   in        ft       cfs      volt
              Ccp-Rev   Ccp-Rev   Ccp-Rev   Ccp-Rev
(US/Central)
01/02 00:00      0.00      3.08       169     12.41
01/02 01:00      0.00      3.08       169     12.41
01/02 02:00      0.00      3.08       169     12.41
01/02 03:00      0.00      3.08       169     12.41
01/02 04:00      0.00      3.10       174     12.33
01/02 05:00      0.00      3.13       183     12.33
01/02 06:00      0.00      3.15       189     12.33
01/02 07:00      0.00      3.17       195     12.25
01/02 08:00      0.00      3.16       192     12.25
01/02 09:00      0.00      3.16       192     12.25
01/02 10:00      0.00      3.15       189     12.25
01/02 11:00      0.00      3.17       195     12.09
01/02 12:00      0.00      3.20       204     13.84
01/02 13:00      0.00      3.24       216     13.84
01/02 14:00      0.00      3.32       242     13.92
01/02 15:00      0.00      3.32       242     13.92
01/02 16:00      0.00      3.34       248     13.92
01/02 17:00      0.00      3.33       245     13.60
01/02 18:00      0.00      3.28       229     13.13
01/02 19:00      0.00      3.24       216     12.65
01/02 20:00      0.00      3.21       207     12.57
01/02 21:00      0.00      3.18       198     12.57
01/02 22:00      0.00      3.18       198     12.49
01/02 23:00      0.00      3.18       198     12.49